sensor_id;sensor_type;location;lat;lon;timestamp;pressure;altitude;pressure_sealevel;temperature;humidity
43364;BME280;40636;52.424;-1.948;2024-03-25T00:00:13;99125.50;;;7.30;72.16
43364;BME280;40636;52.424;-1.948;2024-03-25T00:02:40;99124.63;;;7.31;72.41
43364;BME280;40636;52.424;-1.948;2024-03-25T00:05:06;99127.22;;;7.29;72.67
43364;BME280;40636;52.424;-1.948;2024-03-25T00:07:36;99121.22;;;7.29;72.97
43364;BME280;40636;52.424;-1.948;2024-03-25T00:10:02;99120.34;;;7.28;72.74
43364;BME280;40636;52.424;-1.948;2024-03-25T00:12:28;99120.34;;;7.30;72.43
43364;BME280;40636;52.424;-1.948;2024-03-25T00:14:54;99107.44;;;7.28;72.47
43364;BME280;40636;52.424;-1.948;2024-03-25T00:17:20;99106.59;;;7.28;72.08
43364;BME280;40636;52.424;-1.948;2024-03-25T00:19:46;99109.13;;;7.31;71.98
43364;BME280;40636;52.424;-1.948;2024-03-25T00:22:19;99103.97;;;7.33;72.38
43364;BME280;40636;52.424;-1.948;2024-03-25T00:24:46;99108.25;;;7.32;72.06
43364;BME280;40636;52.424;-1.948;2024-03-25T00:27:12;99109.13;;;7.33;72.25
43364;BME280;40636;52.424;-1.948;2024-03-25T00:29:38;99091.91;;;7.33;72.39
43364;BME280;40636;52.424;-1.948;2024-03-25T00:32:04;99099.63;;;7.33;71.99
43364;BME280;40636;52.424;-1.948;2024-03-25T00:34:31;99088.44;;;7.34;72.59
43364;BME280;40636;52.424;-1.948;2024-03-25T00:37:00;99084.97;;;7.35;72.35
43364;BME280;40636;52.424;-1.948;2024-03-25T00:39:27;99081.56;;;7.33;72.07
43364;BME280;40636;52.424;-1.948;2024-03-25T00:41:53;99073.00;;;7.29;72.46
43364;BME280;40636;52.424;-1.948;2024-03-25T00:44:19;99063.50;;;7.32;72.59
43364;BME280;40636;52.424;-1.948;2024-03-25T00:46:45;99066.06;;;7.32;72.38
43364;BME280;40636;52.424;-1.948;2024-03-25T00:49:11;99069.53;;;7.30;72.45
43364;BME280;40636;52.424;-1.948;2024-03-25T00:51:37;99055.75;;;7.30;72.75
43364;BME280;40636;52.424;-1.948;2024-03-25T00:54:03;99045.41;;;7.32;72.27
43364;BME280;40636;52.424;-1.948;2024-03-25T00:56:30;99036.81;;;7.29;72.57
43364;BME280;40636;52.424;-1.948;2024-03-25T00:58:56;99029.94;;;7.28;72.72
43364;BME280;40636;52.424;-1.948;2024-03-25T01:01:24;99033.38;;;7.30;72.55
43364;BME280;40636;52.424;-1.948;2024-03-25T01:03:49;99029.06;;;7.29;72.07
43364;BME280;40636;52.424;-1.948;2024-03-25T01:06:15;99028.19;;;7.30;72.58
43364;BME280;40636;52.424;-1.948;2024-03-25T01:08:41;99017.88;;;7.30;72.15
43364;BME280;40636;52.424;-1.948;2024-03-25T01:11:07;99014.44;;;7.30;72.21
43364;BME280;40636;52.424;-1.948;2024-03-25T01:13:32;99011.00;;;7.29;73.01
43364;BME280;40636;52.424;-1.948;2024-03-25T01:15:58;98998.94;;;7.30;72.70
43364;BME280;40636;52.424;-1.948;2024-03-25T01:18:24;98996.34;;;7.30;72.97
43364;BME280;40636;52.424;-1.948;2024-03-25T01:20:49;98993.78;;;7.28;72.78
43364;BME280;40636;52.424;-1.948;2024-03-25T01:23:16;98991.19;;;7.28;72.83
43364;BME280;40636;52.424;-1.948;2024-03-25T01:25:41;98986.91;;;7.27;73.02
43364;BME280;40636;52.424;-1.948;2024-03-25T01:28:07;98983.47;;;7.27;73.16
43364;BME280;40636;52.424;-1.948;2024-03-25T01:30:33;98977.44;;;7.28;73.62
43364;BME280;40636;52.424;-1.948;2024-03-25T01:33:01;98970.56;;;7.25;73.49
43364;BME280;40636;52.424;-1.948;2024-03-25T01:35:27;98965.41;;;7.25;73.39
43364;BME280;40636;52.424;-1.948;2024-03-25T01:37:53;98959.38;;;7.26;73.92
43364;BME280;40636;52.424;-1.948;2024-03-25T01:40:18;98953.38;;;7.24;73.61
43364;BME280;40636;52.424;-1.948;2024-03-25T01:42:55;98955.09;;;7.24;73.71
43364;BME280;40636;52.424;-1.948;2024-03-25T01:45:21;98940.44;;;7.24;73.98
43364;BME280;40636;52.424;-1.948;2024-03-25T01:47:47;98944.75;;;7.24;73.40
43364;BME280;40636;52.424;-1.948;2024-03-25T01:50:12;98943.88;;;7.25;74.08
43364;BME280;40636;52.424;-1.948;2024-03-25T01:52:39;98930.97;;;7.26;73.64
43364;BME280;40636;52.424;-1.948;2024-03-25T01:55:07;98929.22;;;7.28;73.66
43364;BME280;40636;52.424;-1.948;2024-03-25T01:57:34;98934.38;;;7.28;74.12
43364;BME280;40636;52.424;-1.948;2024-03-25T02:00:00;98922.31;;;7.29;73.42
43364;BME280;40636;52.424;-1.948;2024-03-25T02:02:26;98924.91;;;7.29;73.73
43364;BME280;40636;52.424;-1.948;2024-03-25T02:04:52;98919.75;;;7.27;74.16
43364;BME280;40636;52.424;-1.948;2024-03-25T02:07:18;98911.16;;;7.27;73.55
43364;BME280;40636;52.424;-1.948;2024-03-25T02:09:45;98911.13;;;7.28;73.77
43364;BME280;40636;52.424;-1.948;2024-03-25T02:12:11;98904.28;;;7.24;73.37
43364;BME280;40636;52.424;-1.948;2024-03-25T02:14:37;98898.28;;;7.24;73.60
43364;BME280;40636;52.424;-1.948;2024-03-25T02:17:04;98897.41;;;7.23;73.02
43364;BME280;40636;52.424;-1.948;2024-03-25T02:19:30;98894.84;;;7.23;73.69
43364;BME280;40636;52.424;-1.948;2024-03-25T02:21:56;98890.50;;;7.25;73.76
43364;BME280;40636;52.424;-1.948;2024-03-25T02:24:23;98883.59;;;7.26;73.43
43364;BME280;40636;52.424;-1.948;2024-03-25T02:26:49;98881.88;;;7.26;73.44
43364;BME280;40636;52.424;-1.948;2024-03-25T02:29:15;98881.03;;;7.26;73.50
43364;BME280;40636;52.424;-1.948;2024-03-25T02:31:41;98880.22;;;7.22;73.33
43364;BME280;40636;52.424;-1.948;2024-03-25T02:34:07;98877.66;;;7.21;72.98
43364;BME280;40636;52.424;-1.948;2024-03-25T02:36:33;98873.38;;;7.20;73.08
43364;BME280;40636;52.424;-1.948;2024-03-25T02:38:59;98855.31;;;7.18;73.19
43364;BME280;40636;52.424;-1.948;2024-03-25T02:41:25;98856.19;;;7.17;73.01
43364;BME280;40636;52.424;-1.948;2024-03-25T02:43:52;98851.84;;;7.19;72.99
43364;BME280;40636;52.424;-1.948;2024-03-25T02:46:18;98840.69;;;7.17;73.26
43364;BME280;40636;52.424;-1.948;2024-03-25T02:48:46;98840.69;;;7.17;73.22
43364;BME280;40636;52.424;-1.948;2024-03-25T02:51:11;98833.84;;;7.15;72.71
43364;BME280;40636;52.424;-1.948;2024-03-25T02:53:37;98838.16;;;7.14;72.79
43364;BME280;40636;52.424;-1.948;2024-03-25T02:56:03;98824.41;;;7.12;73.04
43364;BME280;40636;52.424;-1.948;2024-03-25T02:58:28;98822.72;;;7.10;72.76
43364;BME280;40636;52.424;-1.948;2024-03-25T03:00:54;98821.88;;;7.09;72.97
43364;BME280;40636;52.424;-1.948;2024-03-25T03:03:20;98821.00;;;7.09;72.78
43364;BME280;40636;52.424;-1.948;2024-03-25T03:05:45;98808.13;;;7.07;73.36
43364;BME280;40636;52.424;-1.948;2024-03-25T03:08:11;98810.69;;;7.09;73.03
43364;BME280;40636;52.424;-1.948;2024-03-25T03:10:37;98793.53;;;7.05;72.83
43364;BME280;40636;52.424;-1.948;2024-03-25T03:13:03;98799.56;;;7.04;72.86
43364;BME280;40636;52.424;-1.948;2024-03-25T03:15:28;98795.22;;;7.06;73.06
43364;BME280;40636;52.424;-1.948;2024-03-25T03:17:54;98796.97;;;7.04;73.36
43364;BME280;40636;52.424;-1.948;2024-03-25T03:20:20;98791.00;;;7.02;73.11
43364;BME280;40636;52.424;-1.948;2024-03-25T03:22:46;98789.31;;;6.99;73.21
43364;BME280;40636;52.424;-1.948;2024-03-25T03:25:11;98778.13;;;6.98;73.42
43364;BME280;40636;52.424;-1.948;2024-03-25T03:27:37;98781.56;;;6.97;73.72
43364;BME280;40636;52.424;-1.948;2024-03-25T03:30:03;98770.38;;;6.98;73.64
43364;BME280;40636;52.424;-1.948;2024-03-25T03:32:29;98769.50;;;7.00;73.69
43364;BME280;40636;52.424;-1.948;2024-03-25T03:34:54;98766.91;;;7.01;73.81
43364;BME280;40636;52.424;-1.948;2024-03-25T03:37:20;98766.03;;;7.01;73.94
43364;BME280;40636;52.424;-1.948;2024-03-25T03:39:46;98754.00;;;7.00;74.00
43364;BME280;40636;52.424;-1.948;2024-03-25T03:42:12;98758.31;;;7.01;73.33
43364;BME280;40636;52.424;-1.948;2024-03-25T03:44:37;98752.31;;;6.98;73.70
43364;BME280;40636;52.424;-1.948;2024-03-25T03:47:03;98750.56;;;6.99;73.73
43364;BME280;40636;52.424;-1.948;2024-03-25T03:49:29;98747.06;;;7.03;74.44
43364;BME280;40636;52.424;-1.948;2024-03-25T03:51:54;98739.31;;;7.05;74.38
43364;BME280;40636;52.424;-1.948;2024-03-25T03:54:20;98736.72;;;7.05;73.94
43364;BME280;40636;52.424;-1.948;2024-03-25T03:56:46;98739.34;;;7.03;74.15
43364;BME280;40636;52.424;-1.948;2024-03-25T03:59:11;98736.75;;;7.03;74.53
43364;BME280;40636;52.424;-1.948;2024-03-25T04:01:37;98732.47;;;7.02;73.94
43364;BME280;40636;52.424;-1.948;2024-03-25T04:04:03;98729.03;;;7.02;73.99
43364;BME280;40636;52.424;-1.948;2024-03-25T04:06:29;98726.44;;;7.02;73.96
43364;BME280;40636;52.424;-1.948;2024-03-25T04:08:55;98730.72;;;7.03;74.35
43364;BME280;40636;52.424;-1.948;2024-03-25T04:11:21;98717.78;;;7.06;74.80
43364;BME280;40636;52.424;-1.948;2024-03-25T04:13:46;98717.75;;;7.07;74.80
43364;BME280;40636;52.424;-1.948;2024-03-25T04:16:12;98710.03;;;7.06;74.99
43364;BME280;40636;52.424;-1.948;2024-03-25T04:18:38;98711.75;;;7.05;75.01
43364;BME280;40636;52.424;-1.948;2024-03-25T04:21:11;98703.19;;;7.03;74.89
43364;BME280;40636;52.424;-1.948;2024-03-25T04:23:37;98701.47;;;7.02;75.58
43364;BME280;40636;52.424;-1.948;2024-03-25T04:26:03;98699.78;;;7.00;75.67
43364;BME280;40636;52.424;-1.948;2024-03-25T04:28:31;98702.44;;;6.96;75.55
43364;BME280;40636;52.424;-1.948;2024-03-25T04:30:57;98696.44;;;6.94;76.08
43364;BME280;40636;52.424;-1.948;2024-03-25T04:33:23;98686.13;;;6.91;75.75
43364;BME280;40636;52.424;-1.948;2024-03-25T04:35:48;98692.22;;;6.87;75.79
43364;BME280;40636;52.424;-1.948;2024-03-25T04:38:17;98693.06;;;6.88;76.45
43364;BME280;40636;52.424;-1.948;2024-03-25T04:40:43;98693.06;;;6.88;76.83
43364;BME280;40636;52.424;-1.948;2024-03-25T04:43:10;98686.19;;;6.87;76.70
43364;BME280;40636;52.424;-1.948;2024-03-25T04:45:35;98679.38;;;6.83;77.01
43364;BME280;40636;52.424;-1.948;2024-03-25T04:48:01;98674.25;;;6.81;76.91
43364;BME280;40636;52.424;-1.948;2024-03-25T04:50:27;98676.84;;;6.80;76.98
43364;BME280;40636;52.424;-1.948;2024-03-25T04:52:53;98670.81;;;6.81;76.94
43364;BME280;40636;52.424;-1.948;2024-03-25T04:55:18;98669.06;;;6.81;77.21
43364;BME280;40636;52.424;-1.948;2024-03-25T04:57:44;98662.22;;;6.79;77.15
43364;BME280;40636;52.424;-1.948;2024-03-25T05:00:10;98665.69;;;6.78;77.05
43364;BME280;40636;52.424;-1.948;2024-03-25T05:02:37;98662.25;;;6.77;77.53
43364;BME280;40636;52.424;-1.948;2024-03-25T05:05:03;98653.69;;;6.75;77.66
43364;BME280;40636;52.424;-1.948;2024-03-25T05:07:29;98657.16;;;6.73;77.21
43364;BME280;40636;52.424;-1.948;2024-03-25T05:09:55;98651.19;;;6.69;77.38
43364;BME280;40636;52.424;-1.948;2024-03-25T05:12:21;98650.38;;;6.67;77.38
43364;BME280;40636;52.424;-1.948;2024-03-25T05:14:47;98641.78;;;6.66;77.79
43364;BME280;40636;52.424;-1.948;2024-03-25T05:17:12;98652.09;;;6.66;77.72
43364;BME280;40636;52.424;-1.948;2024-03-25T05:19:38;98640.94;;;6.64;77.90
43364;BME280;40636;52.424;-1.948;2024-03-25T05:22:04;98644.44;;;6.62;77.52
43364;BME280;40636;52.424;-1.948;2024-03-25T05:24:29;98639.28;;;6.60;77.81
43364;BME280;40636;52.424;-1.948;2024-03-25T05:26:55;98634.16;;;6.59;77.81
43364;BME280;40636;52.424;-1.948;2024-03-25T05:29:21;98630.69;;;6.60;78.19
43364;BME280;40636;52.424;-1.948;2024-03-25T05:32:00;98632.41;;;6.61;78.37
43364;BME280;40636;52.424;-1.948;2024-03-25T05:34:27;98630.72;;;6.58;78.30
43364;BME280;40636;52.424;-1.948;2024-03-25T05:36:54;98626.47;;;6.56;77.85
43364;BME280;40636;52.424;-1.948;2024-03-25T05:39:19;98627.34;;;6.55;78.17
43364;BME280;40636;52.424;-1.948;2024-03-25T05:41:46;98622.22;;;6.52;78.02
43364;BME280;40636;52.424;-1.948;2024-03-25T05:44:12;98622.25;;;6.50;78.37
43364;BME280;40636;52.424;-1.948;2024-03-25T05:46:39;98618.81;;;6.50;78.38
43364;BME280;40636;52.424;-1.948;2024-03-25T05:49:05;98623.09;;;6.51;78.18
43364;BME280;40636;52.424;-1.948;2024-03-25T05:51:31;98616.22;;;6.50;78.61
43364;BME280;40636;52.424;-1.948;2024-03-25T05:53:59;98612.78;;;6.51;78.29
43364;BME280;40636;52.424;-1.948;2024-03-25T05:56:25;98609.31;;;6.52;78.44
43364;BME280;40636;52.424;-1.948;2024-03-25T05:58:57;98597.34;;;6.48;78.46
43364;BME280;40636;52.424;-1.948;2024-03-25T06:01:23;98599.94;;;6.48;78.74
43364;BME280;40636;52.424;-1.948;2024-03-25T06:03:49;98601.69;;;6.46;78.82
43364;BME280;40636;52.424;-1.948;2024-03-25T06:06:14;98591.38;;;6.44;78.64
43364;BME280;40636;52.424;-1.948;2024-03-25T06:08:40;98591.38;;;6.44;78.87
43364;BME280;40636;52.424;-1.948;2024-03-25T06:11:06;98581.94;;;6.43;79.00
43364;BME280;40636;52.424;-1.948;2024-03-25T06:13:32;98592.22;;;6.45;79.12
43364;BME280;40636;52.424;-1.948;2024-03-25T06:15:58;98587.06;;;6.46;78.91
43364;BME280;40636;52.424;-1.948;2024-03-25T06:18:24;98593.00;;;6.50;79.30
43364;BME280;40636;52.424;-1.948;2024-03-25T06:20:50;98581.84;;;6.49;79.16
43364;BME280;40636;52.424;-1.948;2024-03-25T06:23:26;98571.56;;;6.46;79.20
43364;BME280;40636;52.424;-1.948;2024-03-25T06:25:53;98572.47;;;6.44;79.25
43364;BME280;40636;52.424;-1.948;2024-03-25T06:28:19;98567.38;;;6.41;78.88
43364;BME280;40636;52.424;-1.948;2024-03-25T06:30:46;98568.16;;;6.44;79.41
43364;BME280;40636;52.424;-1.948;2024-03-25T06:33:31;98563.00;;;6.46;79.49
43364;BME280;40636;52.424;-1.948;2024-03-25T06:36:15;98563.81;;;6.48;79.88
43364;BME280;40636;52.424;-1.948;2024-03-25T06:38:41;98560.38;;;6.47;80.25
43364;BME280;40636;52.424;-1.948;2024-03-25T06:41:07;98568.91;;;6.51;79.87
43364;BME280;40636;52.424;-1.948;2024-03-25T06:43:33;98552.56;;;6.52;80.19
43364;BME280;40636;52.424;-1.948;2024-03-25T06:45:58;98556.03;;;6.51;79.85
43364;BME280;40636;52.424;-1.948;2024-03-25T06:48:24;98550.00;;;6.50;79.82
43364;BME280;40636;52.424;-1.948;2024-03-25T06:50:56;98544.84;;;6.52;79.92
43364;BME280;40636;52.424;-1.948;2024-03-25T06:53:23;98547.38;;;6.53;79.82
43364;BME280;40636;52.424;-1.948;2024-03-25T06:55:55;98549.09;;;6.54;80.23
43364;BME280;40636;52.424;-1.948;2024-03-25T06:58:22;98554.25;;;6.54;80.23
43364;BME280;40636;52.424;-1.948;2024-03-25T07:00:49;98548.25;;;6.52;80.08
43364;BME280;40636;52.424;-1.948;2024-03-25T07:03:18;98554.25;;;6.54;79.91
43364;BME280;40636;52.424;-1.948;2024-03-25T07:05:45;98549.06;;;6.56;80.42
43364;BME280;40636;52.424;-1.948;2024-03-25T07:08:11;98554.16;;;6.60;80.38
43364;BME280;40636;52.424;-1.948;2024-03-25T07:10:37;98549.84;;;6.61;80.34
43364;BME280;40636;52.424;-1.948;2024-03-25T07:13:03;98556.69;;;6.63;80.22
43364;BME280;40636;52.424;-1.948;2024-03-25T07:15:29;98548.00;;;6.68;80.64
43364;BME280;40636;52.424;-1.948;2024-03-25T07:17:54;98546.19;;;6.74;80.76
43364;BME280;40636;52.424;-1.948;2024-03-25T07:20:20;98548.72;;;6.76;80.77
43364;BME280;40636;52.424;-1.948;2024-03-25T07:22:48;98551.28;;;6.77;80.51
43364;BME280;40636;52.424;-1.948;2024-03-25T07:25:13;98544.34;;;6.81;80.31
43364;BME280;40636;52.424;-1.948;2024-03-25T07:27:40;98543.41;;;6.85;80.24
43364;BME280;40636;52.424;-1.948;2024-03-25T07:30:08;98538.19;;;6.88;80.18
43364;BME280;40636;52.424;-1.948;2024-03-25T07:32:35;98539.03;;;6.90;80.55
43364;BME280;40636;52.424;-1.948;2024-03-25T07:35:01;98537.22;;;6.93;80.73
43364;BME280;40636;52.424;-1.948;2024-03-25T07:37:27;98538.13;;;6.92;80.21
43364;BME280;40636;52.424;-1.948;2024-03-25T07:39:53;98534.69;;;6.92;80.12
43364;BME280;40636;52.424;-1.948;2024-03-25T07:42:19;98532.06;;;6.93;80.06
43364;BME280;40636;52.424;-1.948;2024-03-25T07:44:44;98528.66;;;6.94;80.67
43364;BME280;40636;52.424;-1.948;2024-03-25T07:47:10;98526.91;;;6.93;80.69
43364;BME280;40636;52.424;-1.948;2024-03-25T07:49:36;98521.75;;;6.95;80.66
43364;BME280;40636;52.424;-1.948;2024-03-25T07:52:03;98525.19;;;6.95;80.37
43364;BME280;40636;52.424;-1.948;2024-03-25T07:54:29;98523.41;;;6.99;80.32
43364;BME280;40636;52.424;-1.948;2024-03-25T07:56:55;98525.09;;;7.00;80.24
43364;BME280;40636;52.424;-1.948;2024-03-25T07:59:20;98525.00;;;7.05;80.43
43364;BME280;40636;52.424;-1.948;2024-03-25T08:01:46;98520.69;;;7.05;80.14
43364;BME280;40636;52.424;-1.948;2024-03-25T08:04:12;98519.88;;;7.03;80.38
43364;BME280;40636;52.424;-1.948;2024-03-25T08:06:38;98519.88;;;7.03;80.29
43364;BME280;40636;52.424;-1.948;2024-03-25T08:09:03;98516.44;;;7.03;79.83
43364;BME280;40636;52.424;-1.948;2024-03-25T08:11:32;98521.63;;;7.03;80.03
43364;BME280;40636;52.424;-1.948;2024-03-25T08:13:58;98509.53;;;7.05;80.11
43364;BME280;40636;52.424;-1.948;2024-03-25T08:16:24;98509.44;;;7.09;80.41
43364;BME280;40636;52.424;-1.948;2024-03-25T08:18:50;98518.03;;;7.10;80.45
43364;BME280;40636;52.424;-1.948;2024-03-25T08:21:16;98509.47;;;7.08;79.94
43364;BME280;40636;52.424;-1.948;2024-03-25T08:23:44;98512.00;;;7.11;80.41
43364;BME280;40636;52.424;-1.948;2024-03-25T08:26:11;98511.09;;;7.12;80.01
43364;BME280;40636;52.424;-1.948;2024-03-25T08:28:37;98512.84;;;7.11;80.22
43364;BME280;40636;52.424;-1.948;2024-03-25T08:31:03;98502.47;;;7.13;80.55
43364;BME280;40636;52.424;-1.948;2024-03-25T08:33:29;98500.69;;;7.16;80.99
43364;BME280;40636;52.424;-1.948;2024-03-25T08:35:55;98507.59;;;7.16;81.12
43364;BME280;40636;52.424;-1.948;2024-03-25T08:38:21;98502.41;;;7.16;81.12
43364;BME280;40636;52.424;-1.948;2024-03-25T08:40:47;98503.28;;;7.16;81.10
43364;BME280;40636;52.424;-1.948;2024-03-25T08:43:13;98505.81;;;7.18;81.52
43364;BME280;40636;52.424;-1.948;2024-03-25T08:45:39;98504.94;;;7.19;80.93
43364;BME280;40636;52.424;-1.948;2024-03-25T08:48:06;98499.84;;;7.16;81.47
43364;BME280;40636;52.424;-1.948;2024-03-25T08:50:32;98487.78;;;7.16;80.90
43364;BME280;40636;52.424;-1.948;2024-03-25T08:52:58;98493.75;;;7.18;80.90
43364;BME280;40636;52.424;-1.948;2024-03-25T08:55:24;98483.41;;;7.20;80.83
43364;BME280;40636;52.424;-1.948;2024-03-25T08:57:50;98498.03;;;7.21;81.46
43364;BME280;40636;52.424;-1.948;2024-03-25T09:00:17;98496.22;;;7.24;81.55
43364;BME280;40636;52.424;-1.948;2024-03-25T09:02:43;98486.81;;;7.22;81.19
43364;BME280;40636;52.424;-1.948;2024-03-25T09:05:09;98476.41;;;7.25;80.87
43364;BME280;40636;52.424;-1.948;2024-03-25T09:07:35;98481.59;;;7.25;80.67
43364;BME280;40636;52.424;-1.948;2024-03-25T09:10:01;98483.25;;;7.27;80.78
43364;BME280;40636;52.424;-1.948;2024-03-25T09:12:45;98484.91;;;7.30;81.39
43364;BME280;40636;52.424;-1.948;2024-03-25T09:15:11;98489.09;;;7.37;81.13
43364;BME280;40636;52.424;-1.948;2024-03-25T09:17:37;98479.56;;;7.39;81.50
43364;BME280;40636;52.424;-1.948;2024-03-25T09:20:03;98477.81;;;7.41;81.47
43364;BME280;40636;52.424;-1.948;2024-03-25T09:22:58;98480.41;;;7.40;81.00
43364;BME280;40636;52.424;-1.948;2024-03-25T09:25:24;98475.25;;;7.40;81.38
43364;BME280;40636;52.424;-1.948;2024-03-25T09:27:50;98473.59;;;7.37;81.08
43364;BME280;40636;52.424;-1.948;2024-03-25T09:30:17;98474.38;;;7.41;81.42
43364;BME280;40636;52.424;-1.948;2024-03-25T09:32:45;98466.53;;;7.45;80.99
43364;BME280;40636;52.424;-1.948;2024-03-25T09:35:12;98468.22;;;7.46;80.81
43364;BME280;40636;52.424;-1.948;2024-03-25T09:37:38;98460.38;;;7.51;80.90
43364;BME280;40636;52.424;-1.948;2024-03-25T09:40:05;98451.81;;;7.49;80.92
43364;BME280;40636;52.424;-1.948;2024-03-25T09:42:48;98456.91;;;7.53;81.56
43364;BME280;40636;52.424;-1.948;2024-03-25T09:45:17;98450.81;;;7.56;81.47
43364;BME280;40636;52.424;-1.948;2024-03-25T09:47:47;98447.28;;;7.60;81.15
43364;BME280;40636;52.424;-1.948;2024-03-25T09:50:14;98454.06;;;7.66;81.58
43364;BME280;40636;52.424;-1.948;2024-03-25T09:52:48;98444.47;;;7.71;81.31
43364;BME280;40636;52.424;-1.948;2024-03-25T09:55:15;98440.19;;;7.70;80.85
43364;BME280;40636;52.424;-1.948;2024-03-25T09:57:42;98444.44;;;7.72;81.16
43364;BME280;40636;52.424;-1.948;2024-03-25T10:00:09;98440.84;;;7.78;80.69
43364;BME280;40636;52.424;-1.948;2024-03-25T10:02:37;98437.34;;;7.80;80.88
43364;BME280;40636;52.424;-1.948;2024-03-25T10:05:05;98439.00;;;7.83;81.50
43364;BME280;40636;52.424;-1.948;2024-03-25T10:07:31;98432.97;;;7.84;80.75
43364;BME280;40636;52.424;-1.948;2024-03-25T10:09:56;98433.81;;;7.84;80.52
43364;BME280;40636;52.424;-1.948;2024-03-25T10:12:24;98447.63;;;7.83;81.19
43364;BME280;40636;52.424;-1.948;2024-03-25T10:14:50;98450.16;;;7.85;80.82
43364;BME280;40636;52.424;-1.948;2024-03-25T10:17:15;98445.78;;;7.88;81.08
43364;BME280;40636;52.424;-1.948;2024-03-25T10:19:41;98439.72;;;7.89;80.59
43364;BME280;40636;52.424;-1.948;2024-03-25T10:22:08;98433.69;;;7.89;81.21
43364;BME280;40636;52.424;-1.948;2024-03-25T10:24:40;98435.41;;;7.90;80.59
43364;BME280;40636;52.424;-1.948;2024-03-25T10:27:10;98428.47;;;7.92;81.24
43364;BME280;40636;52.424;-1.948;2024-03-25T10:29:37;98425.84;;;7.93;80.65
43364;BME280;40636;52.424;-1.948;2024-03-25T10:32:03;98421.47;;;7.96;80.23
43364;BME280;40636;52.424;-1.948;2024-03-25T10:34:30;98416.28;;;7.97;80.66
43364;BME280;40636;52.424;-1.948;2024-03-25T10:36:57;98427.34;;;8.02;80.76
43364;BME280;40636;52.424;-1.948;2024-03-25T10:39:27;98416.09;;;8.05;80.48
43364;BME280;40636;52.424;-1.948;2024-03-25T10:41:57;98417.72;;;8.10;80.97
43364;BME280;40636;52.424;-1.948;2024-03-25T10:44:24;98411.50;;;8.17;80.81
43364;BME280;40636;52.424;-1.948;2024-03-25T10:46:50;98401.88;;;8.22;80.65
43364;BME280;40636;52.424;-1.948;2024-03-25T10:49:38;98406.91;;;8.29;80.49
43364;BME280;40636;52.424;-1.948;2024-03-25T10:52:11;98408.53;;;8.33;80.17
43364;BME280;40636;52.424;-1.948;2024-03-25T10:54:38;98408.31;;;8.42;80.75
43364;BME280;40636;52.424;-1.948;2024-03-25T10:57:05;98401.19;;;8.50;80.03
43364;BME280;40636;52.424;-1.948;2024-03-25T10:59:31;98394.94;;;8.59;80.29
43364;BME280;40636;52.424;-1.948;2024-03-25T11:01:59;98396.63;;;8.60;80.15
43364;BME280;40636;52.424;-1.948;2024-03-25T11:04:26;98398.25;;;8.64;79.57
43364;BME280;40636;52.424;-1.948;2024-03-25T11:06:52;98398.09;;;8.70;79.26
43364;BME280;40636;52.424;-1.948;2024-03-25T11:09:24;98395.53;;;8.70;79.11
43364;BME280;40636;52.424;-1.948;2024-03-25T11:11:52;98392.88;;;8.71;79.10
43364;BME280;40636;52.424;-1.948;2024-03-25T11:14:19;98389.31;;;8.75;78.32
43364;BME280;40636;52.424;-1.948;2024-03-25T11:16:54;98391.75;;;8.81;79.37
43364;BME280;40636;52.424;-1.948;2024-03-25T11:19:25;98392.47;;;8.86;78.94
43364;BME280;40636;52.424;-1.948;2024-03-25T11:21:51;98388.81;;;8.94;78.97
43364;BME280;40636;52.424;-1.948;2024-03-25T11:24:29;98381.84;;;8.96;78.74
43364;BME280;40636;52.424;-1.948;2024-03-25T11:26:56;98384.31;;;9.00;79.05
43364;BME280;40636;52.424;-1.948;2024-03-25T11:29:22;98374.56;;;9.08;78.57
43364;BME280;40636;52.424;-1.948;2024-03-25T11:31:51;98364.78;;;9.18;78.21
43364;BME280;40636;52.424;-1.948;2024-03-25T11:34:18;98365.16;;;9.35;78.43
43364;BME280;40636;52.424;-1.948;2024-03-25T11:36:44;98361.34;;;9.47;78.20
43364;BME280;40636;52.424;-1.948;2024-03-25T11:39:09;98361.81;;;9.60;78.39
43364;BME280;40636;52.424;-1.948;2024-03-25T11:41:42;98348.59;;;9.67;77.77
43364;BME280;40636;52.424;-1.948;2024-03-25T11:44:09;98358.06;;;9.68;77.09
43364;BME280;40636;52.424;-1.948;2024-03-25T11:46:38;98347.81;;;9.65;76.88
43364;BME280;40636;52.424;-1.948;2024-03-25T11:49:12;98344.50;;;9.60;76.80
43364;BME280;40636;52.424;-1.948;2024-03-25T11:51:38;98347.25;;;9.56;75.85
43364;BME280;40636;52.424;-1.948;2024-03-25T11:54:09;98337.03;;;9.51;76.82
43364;BME280;40636;52.424;-1.948;2024-03-25T11:56:36;98329.25;;;9.51;76.53
43364;BME280;40636;52.424;-1.948;2024-03-25T11:59:03;98331.88;;;9.49;76.94
43364;BME280;40636;52.424;-1.948;2024-03-25T12:01:31;98325.00;;;9.48;76.54
43364;BME280;40636;52.424;-1.948;2024-03-25T12:03:57;98327.69;;;9.45;76.52
43364;BME280;40636;52.424;-1.948;2024-03-25T12:06:23;98315.59;;;9.46;76.90
43364;BME280;40636;52.424;-1.948;2024-03-25T12:08:49;98324.13;;;9.49;77.17
43364;BME280;40636;52.424;-1.948;2024-03-25T12:11:33;98318.19;;;9.46;76.64
43364;BME280;40636;52.424;-1.948;2024-03-25T12:14:00;98317.34;;;9.45;76.88
43364;BME280;40636;52.424;-1.948;2024-03-25T12:16:26;98311.34;;;9.43;76.42
43364;BME280;40636;52.424;-1.948;2024-03-25T12:18:52;98316.34;;;9.49;76.60
43364;BME280;40636;52.424;-1.948;2024-03-25T12:21:21;98305.81;;;9.54;76.63
43364;BME280;40636;52.424;-1.948;2024-03-25T12:23:47;98299.78;;;9.54;76.58
43364;BME280;40636;52.424;-1.948;2024-03-25T12:26:15;98310.09;;;9.55;76.42
43364;BME280;40636;52.424;-1.948;2024-03-25T12:28:40;98298.16;;;9.51;76.57
43364;BME280;40636;52.424;-1.948;2024-03-25T12:31:09;98302.53;;;9.49;76.60
43364;BME280;40636;52.424;-1.948;2024-03-25T12:33:43;98285.19;;;9.51;76.53
43364;BME280;40636;52.424;-1.948;2024-03-25T12:36:12;98286.03;;;9.51;77.07
43364;BME280;40636;52.424;-1.948;2024-03-25T12:38:38;98287.72;;;9.52;76.00
43364;BME280;40636;52.424;-1.948;2024-03-25T12:41:08;98272.19;;;9.52;76.07
43364;BME280;40636;52.424;-1.948;2024-03-25T12:43:36;98274.72;;;9.54;75.53
43364;BME280;40636;52.424;-1.948;2024-03-25T12:46:02;98265.25;;;9.53;75.83
43364;BME280;40636;52.424;-1.948;2024-03-25T12:48:30;98264.34;;;9.54;75.49
43364;BME280;40636;52.424;-1.948;2024-03-25T12:50:56;98263.41;;;9.57;76.06
43364;BME280;40636;52.424;-1.948;2024-03-25T12:53:22;98276.31;;;9.58;75.73
43364;BME280;40636;52.424;-1.948;2024-03-25T12:55:48;98265.84;;;9.61;75.79
43364;BME280;40636;52.424;-1.948;2024-03-25T12:58:14;98262.25;;;9.65;75.18